• Join FlightAware (Why Join?)
  • Login
  • US Flag 
11:56PM EDT


 

Airport Tracker/Info


-or-


 

Live Flight TrackerFlight Track Log ✈ FLG3326 ✈ 14-Jun-2013 ✈ KSTL - KJFK

Flight Track Log - Related Links

Times and Time Zones

All times are in EDT time to prevent confusion due to time zone crossing. See the FLG3326 flight status page for this flight to view local times or setup timezone preferences in your user account.

Time Position Orientation Groundspeed Altitude Reporting Facility
EDT Latitude Longitude Course Direction KTS MPH feet Rate Location/Type
11:33AM 38.7333 -90.2833 84° East 178 205 2,700  Level Gateway (St. Louis) TRACON
11:34AM 38.7331 -90.2339 90° East 215 247 4,000 1,620 Climbing Kansas City Center
11:35AM 38.7406 -90.1458 84° East 234 269 5,600 2,100 Climbing Kansas City Center
11:36AM 38.7614 -89.8070 87° East  Level FlightAware Approximate
11:36AM 38.7483 -90.0467 84° East 267 307 8,300  Level Kansas City Center
11:37AM 38.7667 -89.6670 87° East  Level FlightAware Approximate
11:37AM 38.7567 -89.9456 84° East 283 326 10,200  Level Kansas City Center
11:38AM 38.7850 -89.5287 84° East  Level FlightAware Approximate
11:38AM 38.7681 -89.8025 84° East 329 379 11,600  Level Kansas City Center
11:39AM 38.7965 -89.3800 84° East  Level FlightAware Approximate
11:39AM 38.7786 -89.6742 84° East 357 411 13,500  Level Kansas City Center
11:40AM 38.7878 -89.5333 85° East 366 421 15,400 1,680 Climbing Kansas City Center
11:41AM 38.8061 -89.3986 80° East 380 437 17,000 1,500 Climbing Kansas City Center
11:42AM 38.8253 -89.2500 81° East 391 450 18,600 1,440 Climbing Kansas City Center
11:43AM 38.8428 -89.1083 81° East 399 459 20,000 1,320 Climbing Kansas City Center
11:44AM 38.8608 -88.9572 81° East 415 478 21,400 1,200 Climbing Kansas City Center
11:46AM 38.8836 -88.8078 79° East 424 488 22,600 1,260 Climbing Kansas City Center
11:47AM 38.9011 -88.6539 82° East 435 501 24,000 1,260 Climbing Kansas City Center
11:48AM 38.9219 -88.4914 81° East 439 505 25,300 1,140 Climbing Kansas City Center
11:49AM 38.9611 -88.3431 71° East 436 502 26,500 1,140 Climbing Kansas City Center
11:50AM 38.9983 -88.1925 72° East 439 505 27,700 1,080 Climbing Kansas City Center
11:51AM 39.0144 -88.0297 83° East 453 521 28,700 900 Climbing Kansas City Center
11:52AM 39.0286 -87.8697 83° East 457 526 29,500 960 Climbing Indianapolis Center
11:53AM 39.0594 -87.7092 76° East 462 532 30,700 1,080 Climbing Indianapolis Center
11:54AM 39.1219 -87.5342 65° Northeast 450 518 31,800 1,020 Climbing Indianapolis Center
11:55AM 39.1800 -87.3964 61° Northeast 442 509 32,900 960 Climbing Indianapolis Center
11:56AM 39.2369 -87.2594 62° Northeast 437 503 33,900 780 Climbing Indianapolis Center
11:57AM 39.2944 -87.1214 62° Northeast 436 502 34,600 480 Climbing Indianapolis Center
11:58AM 39.3511 -86.9839 62° Northeast 436 502 35,000 180 Climbing Indianapolis Center
11:59AM 39.4103 -86.8400 62° Northeast 451 519 35,000  Level Indianapolis Center
12:00PM 39.4808 -86.6653 62° Northeast 459 528 35,000  Level Indianapolis Center
12:01PM 39.5403 -86.5203 62° Northeast 459 528 35,000  Level Indianapolis Center
12:02PM 39.5978 -86.3767 63° Northeast 456 525 35,000  Level Indianapolis Center
12:03PM 39.6617 -86.2169 63° Northeast 457 526 35,000  Level Indianapolis Center
12:04PM 39.7228 -86.0639 63° Northeast 457 526 35,000  Level Indianapolis Center
12:05PM 39.7803 -85.9231 62° Northeast 448 516 35,000  Level Indianapolis Center
12:06PM 39.8364 -85.7792 63° Northeast 447 514 35,000  Level Indianapolis Center
12:07PM 39.8931 -85.6369 63° Northeast 446 513 35,000  Level Indianapolis Center
12:08PM 39.9494 -85.4950 63° Northeast 444 511 35,000  Level Indianapolis Center
12:09PM 40.0164 -85.3219 63° Northeast 446 513 35,000  Level Indianapolis Center
12:10PM 40.0728 -85.1775 63° Northeast 447 514 35,000  Level Indianapolis Center
12:11PM 40.1286 -85.0339 63° Northeast 445 512 35,000  Level Indianapolis Center
12:12PM 40.1894 -84.8747 63° Northeast 446 513 35,000  Level Indianapolis Center
12:13PM 40.2403 -84.7222 66° East 453 521 35,000  Level Indianapolis Center
12:14PM 40.2828 -84.5625 71° East 459 528 35,000  Level Indianapolis Center
12:15PM 40.3267 -84.4031 70° East 460 529 35,000  Level Indianapolis Center
12:16PM 40.3703 -84.2433 70° East 460 529 35,000  Level Indianapolis Center
12:18PM 40.4128 -84.0817 71° East 462 532 35,000  Level Indianapolis Center
12:19PM 40.4550 -83.9194 71° East 463 533 35,000  Level Indianapolis Center
12:20PM 40.4992 -83.7583 70° East 463 533 35,000  Level Indianapolis Center
12:21PM 40.5403 -83.5950 72° East 464 534 35,000  Level Indianapolis Center
12:22PM 40.5892 -83.4103 71° East 455 524 35,000  Level Indianapolis Center
12:23PM 40.6289 -83.2508 72° East 453 521 35,000  Level Indianapolis Center
12:24PM 40.6692 -83.0972 71° East 449 517 35,000  Level Indianapolis Center
12:25PM 40.7083 -82.9414 72° East 445 512 35,000  Level Indianapolis Center
12:26PM 40.7478 -82.7858 71° East 445 512 35,000  Level Indianapolis Center
12:27PM 40.7864 -82.6328 72° East 439 505 35,000  Level Indianapolis Center
12:28PM 40.8311 -82.4517 72° East 443 510 35,000  Level Indianapolis Center
12:29PM 40.8689 -82.2975 72° East 440 506 35,000  Level Indianapolis Center
12:30PM 40.9006 -82.1628 73° East 441 507 35,000  Level Cleveland Center
12:31PM 40.9422 -82.0069 70° East 441 507 35,000  Level Cleveland Center
12:32PM 40.9794 -81.8483 73° East 441 507 35,000  Level Cleveland Center
12:33PM 41.0167 -81.6867 73° East 446 513 35,000  Level Cleveland Center
12:34PM 41.0556 -81.5275 72° East 451 519 35,000  Level Cleveland Center
12:35PM 41.0922 -81.3656 73° East 451 519 35,000  Level Cleveland Center
12:36PM 41.1306 -81.2117 72° East 446 513 35,000  Level Cleveland Center
12:37PM 41.1689 -81.0547 72° East 441 507 35,000  Level Cleveland Center
12:38PM 41.2050 -80.8978 73° East 441 507 35,000  Level Cleveland Center
12:39PM 41.2428 -80.7378 73° East 441 507 35,000  Level Cleveland Center
12:40PM 41.2783 -80.5831 73° East 436 502 35,000  Level Cleveland Center
12:41PM 41.3158 -80.4228 73° East 436 502 35,000  Level Cleveland Center
12:42PM 41.3550 -80.2456 74° East 441 507 35,000  Level Cleveland Center
12:43PM 41.3939 -80.0822 72° East 446 513 35,000  Level Cleveland Center
12:44PM 41.4267 -79.9242 74° East 446 513 35,000  Level Cleveland Center
12:45PM 41.4631 -79.7603 73° East 446 513 35,000  Level Cleveland Center
12:46PM 41.4992 -79.5989 73° East 446 513 35,000  Level Cleveland Center
12:47PM 41.5331 -79.4347 75° East 446 513 35,000  Level Cleveland Center
12:48PM 41.5711 -79.2731 72° East 452 520 35,000  Level Cleveland Center
12:49PM 41.6044 -79.1086 75° East 457 526 35,000  Level Cleveland Center
12:50PM 41.6397 -78.9467 74° East 457 526 35,000  Level Cleveland Center
12:51PM 41.6919 -78.7981 65° Northeast 450 518 35,000  Level Cleveland Center
12:52PM 41.7519 -78.6572 60° Northeast 443 510 35,000  Level Cleveland Center
12:53PM 41.8142 -78.5158 59° Northeast 438 504 35,000  Level Cleveland Center
12:54PM 41.8656 -78.3664 65° Northeast 438 504 35,000  Level Cleveland Center
12:55PM 41.8706 -78.1961 88° East 433 498 35,000  Level Cleveland Center
12:57PM 41.8606 -77.8811 92° East 484 557 35,000  Level New York Center
12:58PM 41.8267 -77.7131 105° East 477 549 35,000  Level New York Center
12:59PM 41.7842 -77.5500 109° East 471 542 35,000  Level New York Center
01:00PM 41.7411 -77.3872 109° East 465 535 35,000 -420 Level New York Center
01:01PM 41.6978 -77.2272 110° East 460 529 34,200 -900 Descending New York Center
01:02PM 41.6544 -77.0650 110° East 460 529 33,200 -1,020 Descending New York Center
01:03PM 41.6111 -76.8997 109° East 460 529 32,200 -1,020 Descending New York Center
01:04PM 41.5653 -76.7375 111° Southeast 465 535 31,200 -600 Descending New York Center
01:05PM 41.5158 -76.5586 110° East 465 535 31,000 -120 Descending New York Center
01:06PM 41.4753 -76.4028 109° East 459 528 31,000  Level New York Center
01:07PM 41.4397 -76.2753 110° East 454 522 31,000  Level New York Center
01:08PM 41.3894 -76.0997 111° Southeast 460 529 31,000  Level New York Center
01:09PM 41.3458 -75.9525 111° Southeast 455 524 31,000 -120 Level New York Center
01:10PM 41.3006 -75.7944 111° Southeast 445 512 30,800 -1,380 Descending New York Center
01:11PM 41.2550 -75.6364 111° Southeast 445 512 28,300 -2,460 Descending New York Center
01:12PM 41.2086 -75.4981 114° Southeast 435 501 25,800 -2,460 Descending New York Center
01:13PM 41.1619 -75.3650 115° Southeast 415 478 23,500 -1,440 Descending New York Center
01:14PM 41.1169 -75.2328 114° Southeast 402 463 23,000 -300 Descending New York Center
01:15PM 41.0739 -75.1006 113° Southeast 389 448 23,000  Level New York Center
01:16PM 41.0250 -74.9517 113° Southeast 389 448 23,000 -420 Level New York Center
01:17PM 40.9922 -74.8175 108° East 396 456 22,200 -960 Descending New York Center
01:18PM 40.9761 -74.6819 99° East 390 449 21,200 -1,020 Descending New York Center
01:19PM 40.9667 -74.5833 97° East 366 421 20,500 -1,020 Descending New York TRACON
01:20PM 40.9500 -74.4500 99° East 353 406 19,400 -780 Descending New York TRACON
01:21PM 40.9333 -74.3167 99° East 340 391 19,000 -240 Descending New York TRACON
01:22PM 40.8833 -74.2167 123° Southeast 343 395 19,000  Level New York TRACON
01:23PM 40.8167 -74.1333 137° Southeast 345 397 19,000 -660 Level New York TRACON
01:23PM 40.7333 -74.0833 156° South 359 413 17,800 -1,620 Descending New York TRACON
01:24PM 40.6333 -74.0333 159° South 352 405 16,000 -1,860 Descending New York TRACON
01:25PM 40.5500 -73.9833 155° Southeast 345 397 14,200 -2,100 Descending New York TRACON
01:26PM 40.4667 -73.9500 163° South 331 381 11,800 -2,460 Descending New York TRACON
01:27PM 40.3833 -73.9167 163° South 320 368 9,300 -2,340 Descending New York TRACON
01:28PM 40.3536 -73.9003 157° South 339 390 8,700 -2,340 Descending New York Center
01:29PM 40.2833 -73.8667 160° South 316 364 6,800 -2,160 Descending New York TRACON
01:30PM 40.2000 -73.8500 171° South 307 353 5,000 -1,620 Descending New York TRACON
01:31PM 40.2167 -73.7667 75° East 261 300 3,600 -1,020 Descending New York TRACON
01:32PM 40.2833 -73.7500 11° North 241 277 3,000 -600 Descending New York TRACON
01:33PM 40.3500 -73.7167 21° North 246 283 2,500 -540 Descending New York TRACON
01:34PM 40.4167 -73.6833 21° North 250 288 2,000 -300 Descending New York TRACON
01:35PM 40.4667 -73.6667 14° North 204 235 2,000  Level New York TRACON